Time;durP1;ratioP1;P1;durP2;ratioP2;P2;SDS_P1;SDS_P2;PMS_P1;PMS_P2;Temp;Humidity;BMP_temperature;BMP_pressure;BME280_temperature;BME280_humidity;BME280_pressure;Samples;Min_cycle;Max_cycle;Signal;HPM_P1;HPM_P2
2023/10/10 00:00:23;;;;;;;0.85;0.85;;;;;;;;;;1043795;28;20027;-69
2023/10/10 00:00:57;;;;;;;0.93;0.93;;;;;;;;;;1040446;28;20021;-69
2023/10/10 00:01:27;;;;;;;1.83;1.70;;;;;;;;;;1039902;28;20022;-69
2023/10/10 00:02:04;;;;;;;1.55;1.45;;;;;;;;;;1041702;28;20073;-69
2023/10/10 00:02:36;;;;;;;0.15;0.15;;;;;;;;;;1040797;28;20039;-69
2023/10/10 00:03:08;;;;;;;0.30;0.30;;;;;;;;;;1042440;28;20044;-69
2023/10/10 00:03:42;;;;;;;0.30;0.30;;;;;;;;;;1041690;28;20030;-69
2023/10/10 00:04:12;;;;;;;1.95;1.13;;;;;;;;;;1042130;28;20474;-69
2023/10/10 00:04:43;;;;;;;1.27;1.17;;;;;;;;;;1043279;28;20099;-69
2023/10/10 00:05:14;;;;;;;0.15;0.15;;;;;;;;;;1043431;28;20025;-69
2023/10/10 00:05:44;;;;;;;1.60;1.50;;;;;;;;;;1043776;28;20060;-69
2023/10/10 00:06:16;;;;;;;3.10;2.40;;;;;;;;;;1042652;28;20021;-69
2023/10/10 00:06:49;;;;;;;1.48;1.38;;;;;;;;;;1043446;28;20029;-69
2023/10/10 00:07:20;;;;;;;0.45;0.45;;;;;;;;;;1037952;28;20068;-69
2023/10/10 00:07:51;;;;;;;0.45;0.45;;;;;;;;;;1036941;28;20119;-69
2023/10/10 00:08:27;;;;;;;0.63;0.63;;;;;;;;;;1035568;28;20017;-69
2023/10/10 00:08:58;;;;;;;1.40;1.13;;;;;;;;;;1038631;28;20117;-69
2023/10/10 00:09:28;;;;;;;1.35;1.27;;;;;;;;;;1043298;28;20031;-69
2023/10/10 00:09:59;;;;;;;0.50;0.50;;;;;;;;;;1041816;28;20040;-69
2023/10/10 00:10:31;;;;;;;1.63;1.52;;;;;;;;;;1042606;28;20029;-69
2023/10/10 00:11:12;;;;;;;0.55;0.55;;;;;;;;;;1040920;28;20507;-69
2023/10/10 00:11:43;;;;;;;0.10;0.10;;;;;;;;;;1038621;28;20036;-69
2023/10/10 00:12:18;;;;;;;3.13;2.92;;;;;;;;;;1038016;28;20040;-69
2023/10/10 00:12:48;;;;;;;1.30;1.20;;;;;;;;;;1035415;28;20030;-69
2023/10/10 00:13:19;;;;;;;0.28;0.28;;;;;;;;;;1036518;28;20093;-69
2023/10/10 00:13:58;;;;;;;0.17;0.15;;;;;;;;;;1036684;28;20022;-69
2023/10/10 00:14:29;;;;;;;0.63;0.63;;;;;;;;;;1038589;28;20509;-69
2023/10/10 00:15:02;;;;;;;3.25;1.75;;;;;;;;;;1043383;28;20390;-69
2023/10/10 00:15:34;;;;;;;1.13;0.88;;;;;;;;;;1041185;28;20489;-69
2023/10/10 00:16:05;;;;;;;0.22;0.22;;;;;;;;;;1040621;28;20037;-69
2023/10/10 00:16:37;;;;;;;2.92;2.72;;;;;;;;;;1037816;28;20560;-69
2023/10/10 00:17:09;;;;;;;0.68;0.68;;;;;;;;;;1040705;28;20053;-69
2023/10/10 00:17:41;;;;;;;0.70;0.70;;;;;;;;;;1041753;28;20022;-69
2023/10/10 00:18:11;;;;;;;0.93;0.93;;;;;;;;;;1045620;28;20021;-69
2023/10/10 00:18:45;;;;;;;2.28;1.85;;;;;;;;;;1041601;28;20021;-69
2023/10/10 00:19:21;;;;;;;1.58;1.48;;;;;;;;;;1040194;28;20021;-69
2023/10/10 00:19:52;;;;;;;1.95;1.40;;;;;;;;;;1044090;28;20026;-69
2023/10/10 00:20:24;;;;;;;1.95;1.83;;;;;;;;;;1045996;28;20021;-69
2023/10/10 00:21:08;;;;;;;5.70;2.97;;;;;;;;;;1046809;28;20113;-69
2023/10/10 00:21:40;;;;;;;0.43;0.43;;;;;;;;;;1041004;28;20085;-69
2023/10/10 00:22:11;;;;;;;1.65;1.38;;;;;;;;;;1039668;28;20507;-69
2023/10/10 00:22:43;;;;;;;1.52;1.42;;;;;;;;;;1041385;28;20085;-69
2023/10/10 00:23:17;;;;;;;6.13;0.55;;;;;;;;;;1037204;28;20026;-69
2023/10/10 00:23:47;;;;;;;2.17;1.13;;;;;;;;;;1037276;28;20024;-69
2023/10/10 00:24:20;;;;;;;4.82;3.42;;;;;;;;;;1039763;28;20072;-69
2023/10/10 00:24:51;;;;;;;0.75;0.52;;;;;;;;;;1039045;28;20134;-69
2023/10/10 00:25:28;;;;;;;0.63;0.63;;;;;;;;;;1041464;28;20020;-69
2023/10/10 00:25:58;;;;;;;0.20;0.20;;;;;;;;;;1043612;28;20029;-69
2023/10/10 00:26:29;;;;;;;0.55;0.52;;;;;;;;;;1042306;28;20017;-69
2023/10/10 00:27:35;;;;;;;2.42;2.25;;;;;;;;;;1038223;28;20022;-69
2023/10/10 00:28:00;;;;;;;0.75;0.75;;;;;;;;;;1032585;28;20037;-69
2023/10/10 00:28:34;;;;;;;1.65;1.55;;;;;;;;;;1039314;28;20025;-69
2023/10/10 00:29:06;;;;;;;1.40;0.65;;;;;;;;;;1042440;28;20021;-69
2023/10/10 00:29:36;;;;;;;1.33;1.23;;;;;;;;;;1041470;28;20029;-69
2023/10/10 00:30:07;;;;;;;1.10;0.68;;;;;;;;;;1045153;28;20051;-69
2023/10/10 00:30:43;;;;;;;0.40;0.40;;;;;;;;;;1041901;28;20027;-69
2023/10/10 00:31:17;;;;;;;2.40;0.75;;;;;;;;;;1042144;28;20063;-69
2023/10/10 00:31:55;;;;;;;1.08;0.98;;;;;;;;;;1043067;28;20107;-69
2023/10/10 00:32:28;;;;;;;1.92;1.83;;;;;;;;;;1040643;28;20026;-69
2023/10/10 00:33:02;;;;;;;1.02;1.00;;;;;;;;;;1033744;28;20017;-69
2023/10/10 00:33:34;;;;;;;1.65;1.30;;;;;;;;;;1034154;28;20022;-69
2023/10/10 00:34:07;;;;;;;0.68;0.68;;;;;;;;;;1034519;28;20029;-69
2023/10/10 00:34:38;;;;;;;1.33;1.27;;;;;;;;;;1038652;28;20014;-69
2023/10/10 00:35:11;;;;;;;0.20;0.20;;;;;;;;;;1040837;28;20022;-69
2023/10/10 00:35:47;;;;;;;4.07;1.25;;;;;;;;;;1037536;28;20017;-69
2023/10/10 00:36:22;;;;;;;0.22;0.22;;;;;;;;;;1036422;28;20022;-69
2023/10/10 00:36:52;;;;;;;0.20;0.20;;;;;;;;;;1038409;28;20029;-69
2023/10/10 00:37:29;;;;;;;1.55;0.50;;;;;;;;;;1037807;28;20081;-69
2023/10/10 00:38:02;;;;;;;0.70;0.55;;;;;;;;;;1038266;28;20029;-69
2023/10/10 00:38:33;;;;;;;1.45;1.35;;;;;;;;;;1038193;28;20021;-69
2023/10/10 00:39:21;;;;;;;0.73;0.43;;;;;;;;;;1042017;28;20028;-69
2023/10/10 00:39:52;;;;;;;0.20;0.20;;;;;;;;;;1042929;28;20035;-69
2023/10/10 00:40:29;;;;;;;1.33;1.25;;;;;;;;;;1045543;28;20025;-69
2023/10/10 00:41:05;;;;;;;0.22;0.22;;;;;;;;;;1044738;28;20025;-69
2023/10/10 00:42:19;;;;;;;0.38;0.38;;;;;;;;;;1043573;28;20423;-69
2023/10/10 00:42:50;;;;;;;3.33;1.67;;;;;;;;;;1043264;28;20029;-69
2023/10/10 00:43:23;;;;;;;0.30;0.30;;;;;;;;;;1045298;28;20032;-69
2023/10/10 00:43:54;;;;;;;2.65;1.35;;;;;;;;;;1040625;28;20030;-69
2023/10/10 00:44:25;;;;;;;0.20;0.20;;;;;;;;;;1037147;28;20378;-69
2023/10/10 00:44:56;;;;;;;2.00;1.85;;;;;;;;;;1040070;28;20029;-69
2023/10/10 00:45:33;;;;;;;0.30;0.30;;;;;;;;;;1040651;28;20025;-70
2023/10/10 00:46:07;;;;;;;0.63;0.63;;;;;;;;;;1042977;28;20029;-70
2023/10/10 00:46:39;;;;;;;0.45;0.45;;;;;;;;;;1046894;28;20055;-70
2023/10/10 00:47:26;;;;;;;1.75;1.45;;;;;;;;;;1047746;28;20020;-70
2023/10/10 00:47:59;;;;;;;0.28;0.28;;;;;;;;;;1043753;28;20035;-70
2023/10/10 00:48:31;;;;;;;0.45;0.45;;;;;;;;;;1042795;28;20072;-69
2023/10/10 00:49:06;;;;;;;0.85;0.85;;;;;;;;;;1039198;28;20021;-70
2023/10/10 00:49:37;;;;;;;2.38;2.22;;;;;;;;;;1037854;28;20029;-70
2023/10/10 00:50:14;;;;;;;5.20;1.52;;;;;;;;;;1037997;28;20036;-70
2023/10/10 00:50:47;;;;;;;0.20;0.20;;;;;;;;;;1034256;28;20037;-70
2023/10/10 00:51:21;;;;;;;3.83;2.05;;;;;;;;;;1041344;28;20529;-70
2023/10/10 00:51:53;;;;;;;1.10;0.75;;;;;;;;;;1040500;28;20500;-70
2023/10/10 00:52:24;;;;;;;0.73;0.73;;;;;;;;;;1039017;28;20392;-70
2023/10/10 00:53:00;;;;;;;1.98;1.83;;;;;;;;;;1043436;28;20120;-70
2023/10/10 00:53:33;;;;;;;0.25;0.13;;;;;;;;;;1042966;28;20068;-70
2023/10/10 00:54:25;;;;;;;0.68;0.57;;;;;;;;;;1038135;28;20041;-70
2023/10/10 00:54:56;;;;;;;1.85;0.90;;;;;;;;;;1035893;28;20532;-70
2023/10/10 00:55:33;;;;;;;0.20;0.20;;;;;;;;;;1037676;28;20131;-70
2023/10/10 00:56:07;;;;;;;2.17;2.08;;;;;;;;;;1042738;28;20029;-70
2023/10/10 00:56:44;;;;;;;0.50;0.50;;;;;;;;;;1036340;28;20121;-70
2023/10/10 00:57:16;;;;;;;0.40;0.40;;;;;;;;;;1039438;28;20025;-70
2023/10/10 00:57:46;;;;;;;0.55;0.55;;;;;;;;;;1038825;28;20121;-70
2023/10/10 00:58:22;;;;;;;0.80;0.75;;;;;;;;;;1035927;28;20796;-70
2023/10/10 00:58:53;;;;;;;0.47;0.47;;;;;;;;;;1044404;28;20391;-70
2023/10/10 00:59:42;;;;;;;1.67;1.52;;;;;;;;;;1041569;28;20036;-70
2023/10/10 01:00:15;;;;;;;0.10;0.10;;;;;;;;;;1040850;28;20021;-70
2023/10/10 01:00:47;;;;;;;3.30;1.83;;;;;;;;;;1041435;28;20178;-70
2023/10/10 01:01:19;;;;;;;3.30;2.42;;;;;;;;;;1039234;28;20025;-70
2023/10/10 01:01:50;;;;;;;1.70;1.58;;;;;;;;;;1040694;28;20084;-70
2023/10/10 01:02:20;;;;;;;0.10;0.10;;;;;;;;;;1036903;28;20075;-70
2023/10/10 01:03:01;;;;;;;1.50;1.42;;;;;;;;;;1042098;28;20025;-70
2023/10/10 01:03:34;;;;;;;0.20;0.20;;;;;;;;;;1041414;28;20025;-70
2023/10/10 01:04:07;;;;;;;3.13;1.75;;;;;;;;;;1038598;28;20022;-70
2023/10/10 01:04:39;;;;;;;0.80;0.80;;;;;;;;;;1037161;28;20029;-70
2023/10/10 01:05:12;;;;;;;1.90;0.85;;;;;;;;;;1040882;28;21128;-70
2023/10/10 01:05:52;;;;;;;1.30;1.30;;;;;;;;;;1040726;28;20029;-70
2023/10/10 01:06:26;;;;;;;5.30;1.88;;;;;;;;;;1038532;28;20043;-69
2023/10/10 01:06:57;;;;;;;1.20;0.93;;;;;;;;;;1036639;28;20038;-69
2023/10/10 01:07:28;;;;;;;0.32;0.32;;;;;;;;;;1042634;28;20029;-69
2023/10/10 01:07:59;;;;;;;1.45;1.35;;;;;;;;;;1037389;28;20117;-69
2023/10/10 01:08:46;;;;;;;1.75;0.77;;;;;;;;;;1037269;28;20048;-69
2023/10/10 01:09:28;;;;;;;2.30;1.23;;;;;;;;;;1037307;28;20026;-69
2023/10/10 01:10:11;;;;;;;6.55;1.60;;;;;;;;;;1043167;28;20056;-69
2023/10/10 01:10:47;;;;;;;1.90;1.80;;;;;;;;;;1041230;28;20394;-69
2023/10/10 01:11:19;;;;;;;15.48;5.40;;;;;;;;;;1040822;28;20342;-69
2023/10/10 01:11:50;;;;;;;1.05;0.85;;;;;;;;;;1044389;28;20052;-69
2023/10/10 01:12:22;;;;;;;2.50;0.60;;;;;;;;;;1041454;28;20045;-70
2023/10/10 01:12:53;;;;;;;1.27;1.27;;;;;;;;;;1035594;28;20029;-70
2023/10/10 01:13:23;;;;;;;6.13;1.95;;;;;;;;;;1039527;28;20069;-70
2023/10/10 01:13:56;;;;;;;3.58;3.28;;;;;;;;;;1040317;28;20141;-70
2023/10/10 01:14:27;;;;;;;2.83;0.63;;;;;;;;;;1036065;28;20026;-70
2023/10/10 01:14:57;;;;;;;0.45;0.45;;;;;;;;;;1032678;28;20026;-70
2023/10/10 01:15:34;;;;;;;9.30;1.13;;;;;;;;;;1036363;28;20087;-70
2023/10/10 01:16:06;;;;;;;7.32;1.15;;;;;;;;;;1037797;28;20022;-70
2023/10/10 01:16:39;;;;;;;1.55;1.45;;;;;;;;;;1038362;28;20028;-70
2023/10/10 01:17:12;;;;;;;0.50;0.50;;;;;;;;;;1038592;28;20034;-70
2023/10/10 01:17:43;;;;;;;0.80;0.77;;;;;;;;;;1041017;28;20033;-70
2023/10/10 01:18:14;;;;;;;1.40;0.82;;;;;;;;;;1037916;28;21037;-70
2023/10/10 01:19:00;;;;;;;1.10;1.10;;;;;;;;;;1040360;28;20111;-70
2023/10/10 01:19:34;;;;;;;1.40;1.10;;;;;;;;;;1037740;28;20034;-70
2023/10/10 01:20:18;;;;;;;10.02;0.75;;;;;;;;;;1038780;28;20036;-70
2023/10/10 01:20:49;;;;;;;3.35;1.65;;;;;;;;;;1035144;28;20037;-70
2023/10/10 01:21:30;;;;;;;1.58;1.45;;;;;;;;;;1038457;28;20097;-70
2023/10/10 01:22:03;;;;;;;0.90;0.90;;;;;;;;;;1040992;28;20038;-70
2023/10/10 01:22:39;;;;;;;4.10;2.72;;;;;;;;;;1044215;28;20029;-69
2023/10/10 01:23:11;;;;;;;1.20;1.10;;;;;;;;;;1038273;28;20060;-70
2023/10/10 01:23:45;;;;;;;4.28;3.15;;;;;;;;;;1034981;28;20544;-70
2023/10/10 01:24:21;;;;;;;6.07;2.13;;;;;;;;;;1031743;28;20022;-70
2023/10/10 01:24:53;;;;;;;0.57;0.57;;;;;;;;;;1026997;28;20038;-71
2023/10/10 01:26:06;;;;;;;2.28;1.58;;;;;;;;;;1032083;28;20168;-70
2023/10/10 01:26:38;;;;;;;1.25;1.15;;;;;;;;;;1038405;28;20040;-69
2023/10/10 01:27:21;;;;;;;0.40;0.40;;;;;;;;;;1036116;28;20497;-71
2023/10/10 01:27:54;;;;;;;3.92;1.17;;;;;;;;;;1037321;28;20036;-71
2023/10/10 01:28:33;;;;;;;1.10;0.98;;;;;;;;;;1038101;28;20010;-71
2023/10/10 01:29:21;;;;;;;1.25;1.15;;;;;;;;;;1034223;28;20581;-72
2023/10/10 01:30:17;;;;;;;7.43;1.98;;;;;;;;;;1035436;28;20530;-72
2023/10/10 01:31:30;;;;;;;0.10;0.10;;;;;;;;;;1042210;28;20127;-70
2023/10/10 01:32:04;;;;;;;0.90;0.90;;;;;;;;;;1034671;28;20034;-71
2023/10/10 01:32:38;;;;;;;0.50;0.50;;;;;;;;;;1032719;28;20560;-71
2023/10/10 01:33:14;;;;;;;1.77;1.67;;;;;;;;;;1036324;28;20178;-71
2023/10/10 01:33:47;;;;;;;0.77;0.77;;;;;;;;;;1040588;28;20025;-72
2023/10/10 01:34:31;;;;;;;1.77;1.67;;;;;;;;;;1042490;28;20009;-71
2023/10/10 01:35:01;;;;;;;4.43;2.28;;;;;;;;;;1044589;28;20065;-71
2023/10/10 01:35:32;;;;;;;1.15;1.15;;;;;;;;;;1035236;28;20124;-71
2023/10/10 01:36:11;;;;;;;4.95;0.65;;;;;;;;;;1036599;28;20017;-70
2023/10/10 01:36:41;;;;;;;1.27;1.23;;;;;;;;;;1038022;28;20481;-71
2023/10/10 01:37:20;;;;;;;0.15;0.15;;;;;;;;;;1039400;28;20017;-71
2023/10/10 01:37:54;;;;;;;1.67;0.70;;;;;;;;;;1034290;28;20056;-70
2023/10/10 01:38:31;;;;;;;0.20;0.20;;;;;;;;;;1037924;28;20026;-70
2023/10/10 01:39:21;;;;;;;0.65;0.65;;;;;;;;;;1034614;28;20033;-71
2023/10/10 01:40:41;;;;;;;0.40;0.40;;;;;;;;;;1040694;28;20260;-70
2023/10/10 01:41:15;;;;;;;0.70;0.70;;;;;;;;;;1041011;28;20025;-70
2023/10/10 01:41:48;;;;;;;0.75;0.75;;;;;;;;;;1043087;28;20029;-71
2023/10/10 01:42:24;;;;;;;0.47;0.47;;;;;;;;;;1040157;28;20055;-70
2023/10/10 01:42:59;;;;;;;4.13;1.08;;;;;;;;;;1039820;28;20067;-71
2023/10/10 01:43:32;;;;;;;0.70;0.70;;;;;;;;;;1038815;28;20408;-70
2023/10/10 01:44:12;;;;;;;0.77;0.77;;;;;;;;;;1041870;28;20026;-70
2023/10/10 01:44:43;;;;;;;2.25;1.63;;;;;;;;;;1044553;28;20029;-71
2023/10/10 01:45:19;;;;;;;0.75;0.55;;;;;;;;;;1038197;28;20509;-71
2023/10/10 01:46:08;;;;;;;0.90;0.90;;;;;;;;;;1031856;28;20038;-71
2023/10/10 01:46:42;;;;;;;1.48;1.38;;;;;;;;;;1033649;28;20026;-71
2023/10/10 01:47:26;;;;;;;1.52;0.43;;;;;;;;;;1035045;28;20112;-71
2023/10/10 01:47:56;;;;;;;1.02;1.00;;;;;;;;;;1036701;28;20025;-71
2023/10/10 01:48:27;;;;;;;4.05;2.13;;;;;;;;;;1036824;28;20032;-71
2023/10/10 01:48:57;;;;;;;0.30;0.30;;;;;;;;;;1040389;28;20021;-71
2023/10/10 01:49:31;;;;;;;0.10;0.10;;;;;;;;;;1040865;28;20454;-71
2023/10/10 01:50:08;;;;;;;0.28;0.25;;;;;;;;;;1041753;28;20625;-71
2023/10/10 01:50:38;;;;;;;1.17;0.82;;;;;;;;;;1039094;28;20025;-71
2023/10/10 01:51:15;;;;;;;0.55;0.55;;;;;;;;;;1038502;28;20517;-71
2023/10/10 01:51:46;;;;;;;0.55;0.55;;;;;;;;;;1040497;28;20028;-71
2023/10/10 01:52:17;;;;;;;0.50;0.50;;;;;;;;;;1040096;28;20072;-71
2023/10/10 01:52:50;;;;;;;2.85;1.33;;;;;;;;;;1039362;28;20088;-72
2023/10/10 01:53:21;;;;;;;0.20;0.20;;;;;;;;;;1035794;28;20396;-71
2023/10/10 01:53:52;;;;;;;1.13;1.00;;;;;;;;;;1034405;28;20021;-71
2023/10/10 01:54:32;;;;;;;0.95;0.32;;;;;;;;;;1028966;28;20034;-71
2023/10/10 01:55:05;;;;;;;1.23;1.02;;;;;;;;;;1033731;28;20037;-70
2023/10/10 01:55:38;;;;;;;0.32;0.32;;;;;;;;;;1039283;28;20017;-71
2023/10/10 01:56:11;;;;;;;3.00;2.08;;;;;;;;;;1040153;28;20018;-71
2023/10/10 01:56:42;;;;;;;0.17;0.17;;;;;;;;;;1038768;28;20022;-71
2023/10/10 01:57:23;;;;;;;0.20;0.20;;;;;;;;;;1037413;28;20485;-71
2023/10/10 01:57:57;;;;;;;0.90;0.65;;;;;;;;;;1040597;28;20053;-71
2023/10/10 01:58:29;;;;;;;0.32;0.32;;;;;;;;;;1033898;28;20093;-71
2023/10/10 01:59:02;;;;;;;0.50;0.50;;;;;;;;;;1034288;28;20073;-71
2023/10/10 01:59:35;;;;;;;0.47;0.47;;;;;;;;;;1035034;28;20029;-71
2023/10/10 02:00:20;;;;;;;0.50;0.50;;;;;;;;;;1037646;28;20113;-71
2023/10/10 02:00:51;;;;;;;0.80;0.80;;;;;;;;;;1037299;28;21736;-72
2023/10/10 02:01:24;;;;;;;0.68;0.68;;;;;;;;;;1035992;28;20063;-71
2023/10/10 02:01:57;;;;;;;0.20;0.20;;;;;;;;;;1039036;28;20233;-72
2023/10/10 02:02:30;;;;;;;0.73;0.73;;;;;;;;;;1038617;28;20081;-70
2023/10/10 02:03:01;;;;;;;0.20;0.20;;;;;;;;;;1041915;28;20075;-72
2023/10/10 02:03:32;;;;;;;0.95;0.95;;;;;;;;;;1038810;28;20037;-70
2023/10/10 02:04:06;;;;;;;3.45;2.33;;;;;;;;;;1036545;28;20064;-71
2023/10/10 02:04:39;;;;;;;0.60;0.60;;;;;;;;;;1039464;28;20040;-71
2023/10/10 02:05:11;;;;;;;3.40;2.40;;;;;;;;;;1035095;28;20033;-70
2023/10/10 02:05:45;;;;;;;0.75;0.75;;;;;;;;;;1038734;28;20025;-71
2023/10/10 02:06:26;;;;;;;0.65;0.43;;;;;;;;;;1041971;28;20454;-72
2023/10/10 02:06:57;;;;;;;0.20;0.20;;;;;;;;;;1040755;28;20025;-71
2023/10/10 02:07:31;;;;;;;6.55;2.78;;;;;;;;;;1042814;28;20025;-70
2023/10/10 02:08:16;;;;;;;1.48;1.38;;;;;;;;;;1042151;28;20021;-70
2023/10/10 02:08:46;;;;;;;0.17;0.17;;;;;;;;;;1041603;28;20022;-70
2023/10/10 02:11:02;;;;;;;;;;;;;;;;;;1027121;28;20041;-70
2023/10/10 02:11:32;;;;;;;0.17;0.15;;;;;;;;;;1043505;28;20008;-70
2023/10/10 02:12:16;;;;;;;0.30;0.30;;;;;;;;;;1039156;28;20035;-70
2023/10/10 02:12:46;;;;;;;0.60;0.60;;;;;;;;;;1040478;28;20021;-71
2023/10/10 02:13:17;;;;;;;0.45;0.40;;;;;;;;;;1039226;28;20385;-72
2023/10/10 02:13:48;;;;;;;1.25;1.15;;;;;;;;;;1037063;28;20022;-71
2023/10/10 02:14:25;;;;;;;0.22;0.22;;;;;;;;;;1036131;28;20029;-71
2023/10/10 02:14:56;;;;;;;2.33;1.75;;;;;;;;;;1035957;28;20025;-70
2023/10/10 02:15:32;;;;;;;1.23;1.13;;;;;;;;;;1037148;28;20075;-71
2023/10/10 02:16:04;;;;;;;1.27;1.17;;;;;;;;;;1031362;28;20026;-71
2023/10/10 02:16:35;;;;;;;0.52;0.38;;;;;;;;;;1030076;28;20544;-71
2023/10/10 02:17:20;;;;;;;0.85;0.85;;;;;;;;;;1034347;28;20045;-72
2023/10/10 02:17:51;;;;;;;1.52;1.42;;;;;;;;;;1034132;28;20025;-71
2023/10/10 02:18:37;;;;;;;0.98;0.88;;;;;;;;;;1032638;28;20144;-71
2023/10/10 02:19:15;;;;;;;0.45;0.45;;;;;;;;;;1034265;28;20168;-71
2023/10/10 02:19:53;;;;;;;15.93;2.53;;;;;;;;;;1039186;28;20112;-71
2023/10/10 02:20:54;;;;;;;1.75;0.73;;;;;;;;;;1034226;28;20033;-71
2023/10/10 02:21:43;;;;;;;0.85;0.85;;;;;;;;;;1036088;28;20041;-71
2023/10/10 02:22:22;;;;;;;1.33;0.63;;;;;;;;;;1036476;28;20095;-72
2023/10/10 02:23:34;;;;;;;1.27;1.17;;;;;;;;;;1034360;28;20033;-72
2023/10/10 02:25:47;;;;;;;0.10;0.10;;;;;;;;;;1031575;28;20823;-71
2023/10/10 02:26:23;;;;;;;1.35;1.02;;;;;;;;;;1038433;28;20025;-71
2023/10/10 02:26:54;;;;;;;1.05;1.05;;;;;;;;;;1041755;28;20028;-71
2023/10/10 02:27:32;;;;;;;0.63;0.63;;;;;;;;;;1038658;28;20161;-71
2023/10/10 02:28:20;;;;;;;1.85;1.20;;;;;;;;;;1035173;28;20033;-71
2023/10/10 02:29:16;;;;;;;0.68;0.68;;;;;;;;;;1033643;28;20513;-71
2023/10/10 02:29:48;;;;;;;1.00;1.00;;;;;;;;;;1035539;28;20081;-71
2023/10/10 02:30:24;;;;;;;1.58;1.15;;;;;;;;;;1037880;28;20634;-71
2023/10/10 02:31:03;;;;;;;10.95;1.30;;;;;;;;;;1042518;28;20048;-72
2023/10/10 02:31:33;;;;;;;8.52;2.97;;;;;;;;;;1040776;28;20025;-72
2023/10/10 02:32:13;;;;;;;1.90;1.42;;;;;;;;;;1038801;28;20731;-71
2023/10/10 02:32:46;;;;;;;1.50;1.45;;;;;;;;;;1038899;28;20033;-71
2023/10/10 02:34:02;;;;;;;1.67;1.58;;;;;;;;;;1035697;28;20168;-72
2023/10/10 02:34:35;;;;;;;0.30;0.30;;;;;;;;;;1035728;28;20030;-72
2023/10/10 02:35:27;;;;;;;1.33;1.25;;;;;;;;;;1036106;28;20030;-72
2023/10/10 02:35:57;;;;;;;0.80;0.80;;;;;;;;;;1034205;28;20041;-72
2023/10/10 02:36:30;;;;;;;0.43;0.43;;;;;;;;;;1034095;28;20938;-71
2023/10/10 02:37:41;;;;;;;1.83;1.50;;;;;;;;;;1033849;28;20022;-72
2023/10/10 02:38:05;;;;;;;0.98;0.93;;;;;;;;;;1033630;28;20038;-72
2023/10/10 02:38:39;;;;;;;0.50;0.50;;;;;;;;;;1033783;28;20348;-72
2023/10/10 02:39:26;;;;;;;1.17;1.08;;;;;;;;;;1038411;28;20116;-72
2023/10/10 02:40:43;;;;;;;2.03;0.75;;;;;;;;;;1038428;28;20063;-69
2023/10/10 02:41:51;;;;;;;0.38;0.30;;;;;;;;;;1030310;28;20571;-71
2023/10/10 02:42:23;;;;;;;2.55;2.35;;;;;;;;;;1031491;28;20713;-72
2023/10/10 02:43:46;;;;;;;3.53;1.08;;;;;;;;;;1034936;28;20026;-73
2023/10/10 02:44:29;;;;;;;1.70;1.60;;;;;;;;;;1033102;28;20025;-70
2023/10/10 02:45:04;;;;;;;0.85;0.85;;;;;;;;;;1040675;28;20028;-71
2023/10/10 02:45:35;;;;;;;2.03;1.70;;;;;;;;;;1037544;28;20476;-72
2023/10/10 02:46:06;;;;;;;2.03;1.10;;;;;;;;;;1039279;28;20021;-70
2023/10/10 02:46:39;;;;;;;7.93;1.50;;;;;;;;;;1033076;28;20037;-71
2023/10/10 02:47:12;;;;;;;1.48;1.38;;;;;;;;;;1031574;28;20027;-71
2023/10/10 02:47:46;;;;;;;0.40;0.40;;;;;;;;;;1031699;28;20060;-72
2023/10/10 02:48:27;;;;;;;0.20;0.20;;;;;;;;;;1031613;28;20121;-71
2023/10/10 02:48:57;;;;;;;2.92;1.30;;;;;;;;;;1037621;28;20051;-72
2023/10/10 02:50:38;;;;;;;0.63;0.63;;;;;;;;;;1037897;28;20063;-71
2023/10/10 02:51:04;;;;;;;0.65;0.65;;;;;;;;;;1040488;28;20025;-70
2023/10/10 02:51:36;;;;;;;1.80;1.55;;;;;;;;;;1039716;28;20057;-71
2023/10/10 02:52:07;;;;;;;0.35;0.35;;;;;;;;;;1039130;28;20029;-71
2023/10/10 02:52:45;;;;;;;0.47;0.32;;;;;;;;;;1034995;28;20061;-71
2023/10/10 02:53:19;;;;;;;1.55;1.45;;;;;;;;;;1035705;28;20033;-71
2023/10/10 02:53:50;;;;;;;0.13;0.13;;;;;;;;;;1032365;28;20033;-72
2023/10/10 02:54:54;;;;;;;1.05;1.00;;;;;;;;;;1030066;28;20646;-71
2023/10/10 02:55:33;;;;;;;11.30;2.35;;;;;;;;;;1031015;28;20429;-71
2023/10/10 02:56:09;;;;;;;1.23;1.05;;;;;;;;;;1034776;28;20498;-71
2023/10/10 02:56:43;;;;;;;0.30;0.30;;;;;;;;;;1035434;28;20112;-72
2023/10/10 02:57:59;;;;;;;18.05;1.23;;;;;;;;;;1039313;28;20025;-71
2023/10/10 02:58:38;;;;;;;0.77;0.73;;;;;;;;;;1035031;28;20036;-72
2023/10/10 02:59:09;;;;;;;4.47;0.82;;;;;;;;;;1032619;28;20459;-72
2023/10/10 02:59:43;;;;;;;0.88;0.82;;;;;;;;;;1029834;28;20482;-71
2023/10/10 03:00:57;;;;;;;2.25;2.15;;;;;;;;;;1028890;28;20037;-71
2023/10/10 03:02:08;;;;;;;3.72;1.65;;;;;;;;;;1030067;28;20026;-72
2023/10/10 03:02:40;;;;;;;3.38;0.68;;;;;;;;;;1033271;28;20046;-70
2023/10/10 03:03:18;;;;;;;1.13;1.10;;;;;;;;;;1031714;28;20414;-72
2023/10/10 03:03:51;;;;;;;2.08;0.88;;;;;;;;;;1032851;28;20205;-71
2023/10/10 03:04:23;;;;;;;0.30;0.30;;;;;;;;;;1032055;28;20034;-71
2023/10/10 03:05:43;;;;;;;0.88;0.88;;;;;;;;;;1037968;28;20025;-72
2023/10/10 03:06:13;;;;;;;1.95;0.93;;;;;;;;;;1039625;28;20156;-73
2023/10/10 03:06:44;;;;;;;1.25;1.15;;;;;;;;;;1040021;28;20083;-72
2023/10/10 03:07:28;;;;;;;0.20;0.20;;;;;;;;;;1039312;28;20109;-72
2023/10/10 03:07:59;;;;;;;1.52;1.45;;;;;;;;;;1038611;28;20542;-71
2023/10/10 03:09:13;;;;;;;2.15;2.05;;;;;;;;;;1039872;28;20025;-73
2023/10/10 03:10:15;;;;;;;1.17;0.65;;;;;;;;;;1037558;28;20053;-72
2023/10/10 03:10:41;;;;;;;2.42;2.10;;;;;;;;;;1038176;28;20026;-72
2023/10/10 03:11:34;;;;;;;1.58;0.93;;;;;;;;;;1039267;28;20505;-72
2023/10/10 03:12:05;;;;;;;9.73;2.65;;;;;;;;;;1037783;28;20455;-72
2023/10/10 03:12:37;;;;;;;7.68;0.95;;;;;;;;;;1032993;28;20084;-72
2023/10/10 03:13:27;;;;;;;0.47;0.47;;;;;;;;;;1034630;28;20151;-72
2023/10/10 03:14:07;;;;;;;0.55;0.55;;;;;;;;;;1033421;28;20033;-71
2023/10/10 03:14:43;;;;;;;0.35;0.35;;;;;;;;;;1035114;28;20030;-71
2023/10/10 03:15:27;;;;;;;0.93;0.93;;;;;;;;;;1034367;28;20502;-71
2023/10/10 03:16:59;;;;;;;10.82;1.90;;;;;;;;;;1036809;28;20021;-72
2023/10/10 03:17:43;;;;;;;0.75;0.75;;;;;;;;;;1040613;28;20551;-73
2023/10/10 03:18:19;;;;;;;0.85;0.85;;;;;;;;;;1039259;28;20052;-74
2023/10/10 03:19:38;;;;;;;2.25;1.35;;;;;;;;;;1039520;28;20409;-72
2023/10/10 03:23:55;;;;;;;2.20;2.05;;;;;;;;;;1036427;28;20028;-72
2023/10/10 03:25:21;;;;;;;1.02;0.60;;;;;;;;;;1039559;28;20029;-73
2023/10/10 03:26:04;;;;;;;0.17;0.17;;;;;;;;;;1037367;28;20037;-73
2023/10/10 03:29:04;;;;;;;0.55;0.55;;;;;;;;;;1037981;28;20396;-73
2023/10/10 03:30:15;;;;;;;1.38;0.70;;;;;;;;;;1038041;28;20070;-73
2023/10/10 03:30:50;;;;;;;0.35;0.35;;;;;;;;;;1036141;28;20501;-73
2023/10/10 03:31:31;;;;;;;0.10;0.10;;;;;;;;;;1037389;28;20032;-70
2023/10/10 03:33:09;;;;;;;1.20;1.00;;;;;;;;;;1040787;28;20519;-73
2023/10/10 03:34:32;;;;;;;2.05;0.82;;;;;;;;;;1034575;28;20042;-72
2023/10/10 03:35:13;;;;;;;3.72;2.42;;;;;;;;;;1031250;28;20042;-73
2023/10/10 03:36:48;;;;;;;2.13;1.95;;;;;;;;;;1026730;28;20030;-75
2023/10/10 03:37:30;;;;;;;1.92;1.80;;;;;;;;;;1035695;28;20120;-73
2023/10/10 03:38:26;;;;;;;10.13;2.00;;;;;;;;;;1035328;28;20086;-73
2023/10/10 03:41:24;;;;;;;1.55;1.25;;;;;;;;;;1033243;28;20267;-73
2023/10/10 05:23:47;;;;;;;14.30;1.00;;;;;;;;;;1039355;28;20748;-75
2023/10/10 05:24:21;;;;;;;8.75;2.55;;;;;;;;;;1035817;28;20272;-76
2023/10/10 05:24:56;;;;;;;1.65;1.55;;;;;;;;;;1036082;28;20126;-76
2023/10/10 05:25:33;;;;;;;4.18;3.17;;;;;;;;;;1033111;28;20701;-75
2023/10/10 05:26:13;;;;;;;1.42;1.33;;;;;;;;;;1036428;28;20038;-76
2023/10/10 05:26:47;;;;;;;5.28;2.20;;;;;;;;;;1035385;28;20068;-74
2023/10/10 05:27:29;;;;;;;1.58;1.25;;;;;;;;;;1033960;28;20026;-75
2023/10/10 05:28:03;;;;;;;3.40;0.75;;;;;;;;;;1033237;28;20033;-75
2023/10/10 05:28:40;;;;;;;5.45;0.88;;;;;;;;;;1031184;28;20027;-75
2023/10/10 05:29:11;;;;;;;13.52;2.45;;;;;;;;;;1030151;28;20033;-73
2023/10/10 05:29:43;;;;;;;24.58;2.35;;;;;;;;;;1032785;28;20048;-75
2023/10/10 05:30:27;;;;;;;1.85;1.15;;;;;;;;;;1033655;28;20043;-75
2023/10/10 05:30:58;;;;;;;3.40;0.65;;;;;;;;;;1027208;28;20037;-74
2023/10/10 05:31:30;;;;;;;0.20;0.20;;;;;;;;;;1029280;28;20082;-74
2023/10/10 05:32:08;;;;;;;1.92;1.63;;;;;;;;;;1029398;28;20043;-73
2023/10/10 05:32:54;;;;;;;3.50;1.55;;;;;;;;;;1032647;28;20072;-73
2023/10/10 05:33:26;;;;;;;1.95;1.27;;;;;;;;;;1034731;28;20038;-73
2023/10/10 05:33:57;;;;;;;19.20;3.33;;;;;;;;;;1036093;28;20033;-75
2023/10/10 05:34:29;;;;;;;4.38;1.35;;;;;;;;;;1030946;28;20494;-76
2023/10/10 05:35:01;;;;;;;9.32;1.55;;;;;;;;;;1034579;28;20040;-73
2023/10/10 05:35:38;;;;;;;6.45;1.60;;;;;;;;;;1035436;28;20037;-74
2023/10/10 05:36:09;;;;;;;6.63;3.00;;;;;;;;;;1038760;28;20022;-73
2023/10/10 05:36:41;;;;;;;8.60;2.55;;;;;;;;;;1038067;28;20576;-73
2023/10/10 05:37:12;;;;;;;2.53;1.45;;;;;;;;;;1032125;28;20545;-74
2023/10/10 05:37:43;;;;;;;1.52;1.42;;;;;;;;;;1035226;28;20025;-73
2023/10/10 05:38:19;;;;;;;2.40;1.85;;;;;;;;;;1033704;28;20026;-75
2023/10/10 05:38:50;;;;;;;6.30;2.08;;;;;;;;;;1030551;28;20038;-73
2023/10/10 05:39:21;;;;;;;6.18;2.55;;;;;;;;;;1034406;28;20049;-73
2023/10/10 05:39:58;;;;;;;7.45;3.15;;;;;;;;;;1034841;28;20517;-74
2023/10/10 05:40:33;;;;;;;7.63;2.83;;;;;;;;;;1032109;28;20070;-74
2023/10/10 05:41:06;;;;;;;2.00;0.45;;;;;;;;;;1027906;28;20033;-72
2023/10/10 05:41:40;;;;;;;0.98;0.77;;;;;;;;;;1027907;28;20120;-74